createdAt,value
2019-04-11T00:01:44.740Z,80.08
2019-04-11T00:04:10.596Z,79.74
2019-04-11T00:06:41.849Z,79.36
2019-04-11T00:09:16.709Z,79.47
2019-04-11T00:11:48.369Z,80.25
2019-04-11T00:14:21.992Z,80.62
2019-04-11T00:16:53.472Z,80.53
2019-04-11T00:19:24.927Z,80.79
2019-04-11T00:21:57.215Z,80.77
2019-04-11T00:24:29.205Z,81.50
2019-04-11T00:27:00.973Z,81.49
2019-04-11T00:29:32.622Z,81.46
2019-04-11T00:32:06.518Z,81.49
2019-04-11T00:34:37.441Z,81.44
2019-04-11T00:37:09.101Z,81.53
2019-04-11T00:39:40.841Z,81.30
2019-04-11T00:42:12.516Z,80.98
2019-04-11T00:44:45.158Z,81.16
2019-04-11T00:47:17.217Z,81.22
2019-04-11T00:49:48.794Z,81.11
2019-04-11T00:52:20.674Z,80.84
2019-04-11T00:54:53.140Z,80.43
2019-04-11T00:57:25.201Z,80.09
2019-04-11T00:59:56.859Z,79.51
2019-04-11T01:02:29.538Z,79.61
2019-04-11T01:05:01.358Z,79.48
2019-04-11T01:07:35.239Z,79.34
2019-04-11T01:10:10.219Z,79.50
2019-04-11T01:12:42.947Z,79.71
2019-04-11T01:15:17.463Z,79.47
2019-04-11T01:17:49.725Z,79.24
2019-04-11T01:20:21.638Z,79.67
2019-04-11T01:22:52.921Z,79.79
2019-04-11T01:25:24.454Z,80.40
2019-04-11T01:27:56.422Z,80.51
2019-04-11T01:30:38.607Z,80.24
2019-04-11T01:33:10.853Z,80.25
2019-04-11T01:35:43.646Z,80.29
2019-04-11T01:38:15.236Z,80.09
2019-04-11T01:40:47.728Z,80.32
2019-04-11T01:43:19.845Z,80.19
2019-04-11T01:45:51.815Z,79.96
2019-04-11T01:48:45.891Z,79.89
2019-04-11T01:51:17.890Z,79.57
2019-04-11T01:53:49.499Z,80.12
2019-04-11T01:56:21.131Z,80.07
2019-04-11T01:58:53.119Z,80.01
2019-04-11T02:01:32.705Z,80.36
2019-04-11T02:04:11.952Z,81.04
2019-04-11T02:06:45.782Z,81.34
2019-04-11T02:09:18.316Z,82.19
2019-04-11T02:11:50.029Z,82.71
2019-04-11T02:14:22.655Z,83.46
2019-04-11T02:16:54.570Z,84.38
2019-04-11T02:19:26.001Z,83.65
2019-04-11T02:22:08.921Z,83.70
2019-04-11T02:24:47.989Z,84.73
2019-04-11T02:27:23.310Z,84.45
2019-04-11T02:29:55.254Z,85.02
2019-04-11T02:32:29.015Z,84.79
2019-04-11T02:35:02.469Z,84.96
2019-04-11T02:37:34.324Z,85.14
2019-04-11T02:40:08.165Z,85.27
2019-04-11T02:42:41.041Z,85.56
2019-04-11T02:45:25.166Z,85.18
2019-04-11T02:47:48.378Z,85.00
2019-04-11T02:50:21.981Z,85.07
2019-04-11T02:52:53.014Z,85.32
2019-04-11T02:55:25.186Z,84.50
2019-04-11T02:57:59.111Z,84.07
2019-04-11T03:00:31.467Z,84.72
2019-04-11T03:03:05.688Z,85.05
2019-04-11T03:05:39.199Z,85.05
2019-04-11T03:08:13.933Z,85.20
2019-04-11T03:10:45.507Z,84.98
2019-04-11T03:13:18.928Z,86.11
2019-04-11T03:16:07.197Z,85.92
2019-04-11T03:18:43.223Z,85.77
2019-04-11T03:21:02.837Z,85.71
2019-04-11T03:23:35.443Z,85.67
2019-04-11T03:26:09.657Z,85.10
2019-04-11T03:28:42.541Z,84.76
2019-04-11T03:31:50.544Z,85.08
2019-04-11T03:37:06.810Z,84.58
2019-04-11T03:39:15.407Z,84.47
2019-04-11T03:41:48.945Z,84.32
2019-04-11T03:44:13.508Z,84.48
2019-04-11T03:46:49.592Z,84.00
2019-04-11T03:49:20.977Z,83.22
2019-04-11T03:51:43.632Z,83.04
2019-04-11T03:54:17.796Z,83.64
2019-04-11T03:56:51.169Z,83.94
2019-04-11T03:59:23.674Z,84.34
2019-04-11T04:01:57.479Z,84.65
2019-04-11T04:04:29.149Z,84.94
2019-04-11T04:07:02.452Z,85.21
2019-04-11T04:09:35.299Z,85.23
2019-04-11T04:12:09.299Z,85.33
2019-04-11T04:15:04.609Z,85.56
2019-04-11T04:17:47.567Z,85.82
2019-04-11T04:20:37.177Z,85.77
2019-04-11T04:23:16.629Z,85.50
2019-04-11T04:25:49.356Z,85.19
2019-04-11T04:28:21.890Z,85.19
2019-04-11T04:30:54.524Z,84.47
2019-04-11T04:33:26.575Z,83.77
2019-04-11T04:36:00.258Z,83.35
2019-04-11T04:38:33.841Z,83.13
2019-04-11T04:41:21.164Z,83.46
2019-04-11T04:43:41.949Z,84.16
2019-04-11T04:46:29.997Z,83.91
2019-04-11T04:48:49.251Z,84.25
2019-04-11T04:51:23.792Z,84.37
2019-04-11T04:53:55.525Z,84.30
2019-04-11T04:56:31.615Z,84.74
2019-04-11T04:59:02.628Z,85.42
2019-04-11T05:01:35.112Z,86.34
2019-04-11T05:04:06.896Z,87.63
2019-04-11T05:06:40.669Z,88.08
2019-04-11T05:09:12.887Z,89.13
2019-04-11T05:11:44.721Z,88.88
2019-04-11T05:14:15.997Z,88.63
2019-04-11T05:16:48.217Z,88.37
2019-04-11T05:19:19.425Z,88.25
2019-04-11T05:21:50.961Z,88.46
2019-04-11T05:24:23.191Z,88.49
2019-04-11T05:26:55.831Z,88.19
2019-04-11T05:29:27.663Z,87.59
2019-04-11T05:31:59.253Z,85.66
2019-04-11T05:34:30.457Z,85.69
2019-04-11T05:37:01.992Z,85.28
2019-04-11T05:39:33.883Z,84.92
2019-04-11T05:42:05.366Z,85.11
2019-04-11T05:44:40.184Z,85.34
2019-04-11T05:47:15.858Z,84.67
2019-04-11T05:49:49.289Z,84.60
2019-04-11T05:52:20.896Z,84.77
2019-04-11T05:54:54.881Z,85.64
2019-04-11T05:57:33.617Z,85.44
2019-04-11T06:00:00.159Z,85.56
2019-04-11T06:02:41.713Z,85.32
2019-04-11T06:05:19.345Z,85.25
2019-04-11T06:07:57.772Z,84.86
2019-04-11T06:10:42.555Z,84.51
2019-04-11T06:13:24.570Z,84.29
2019-04-11T06:16:00.603Z,84.20
2019-04-11T06:18:48.124Z,83.09
2019-04-11T06:21:24.405Z,83.09
2019-04-11T06:24:03.647Z,83.84
2019-04-11T06:26:44.964Z,83.82
2019-04-11T06:29:35.530Z,83.68
2019-04-11T06:32:26.245Z,82.02
2019-04-11T06:35:06.119Z,82.02
2019-04-11T06:37:56.304Z,81.25
2019-04-11T06:40:32.763Z,81.08
2019-04-11T06:43:21.815Z,81.19
2019-04-11T06:46:15.154Z,81.44
2019-04-11T06:49:14.034Z,81.81
2019-04-11T06:51:53.413Z,81.53
2019-04-11T06:54:56.217Z,81.38
2019-04-11T06:57:29.908Z,79.93
2019-04-11T07:00:02.891Z,78.51
2019-04-11T07:02:38.915Z,79.10
2019-04-11T07:05:11.862Z,76.62
2019-04-11T07:07:46.712Z,76.01
2019-04-11T07:10:22.247Z,74.45
2019-04-11T07:13:16.388Z,73.63
2019-04-11T07:15:53.449Z,73.22
2019-04-11T07:18:44.180Z,72.55
2019-04-11T07:21:15.688Z,72.47
2019-04-11T07:24:05.378Z,73.58
2019-04-11T07:26:50.088Z,72.15
2019-04-11T07:29:46.483Z,71.17
2019-04-11T07:32:20.228Z,70.50
2019-04-11T07:35:29.325Z,71.05
2019-04-11T07:38:01.177Z,70.63
2019-04-11T07:40:56.070Z,70.28
2019-04-11T07:43:29.810Z,69.66
2019-04-11T07:46:24.578Z,69.62
2019-04-11T07:48:59.439Z,68.72
2019-04-11T07:51:50.786Z,67.53
2019-04-11T07:54:23.828Z,69.01
2019-04-11T07:57:05.496Z,68.11
2019-04-11T07:59:59.954Z,68.51
2019-04-11T08:02:49.241Z,68.13
2019-04-11T08:05:40.903Z,68.28
2019-04-11T08:08:32.392Z,67.69
2019-04-11T08:11:11.524Z,67.69
2019-04-11T08:14:13.827Z,68.83
2019-04-11T08:17:09.326Z,66.98
2019-04-11T08:20:15.190Z,67.34
2019-04-11T08:22:49.614Z,68.07
2019-04-11T08:25:45.751Z,67.33
2019-04-11T08:28:18.407Z,68.05
2019-04-11T08:30:55.260Z,66.45
2019-04-11T08:33:27.082Z,66.44
2019-04-11T08:36:35.291Z,66.58
2019-04-11T08:39:17.295Z,66.48
2019-04-11T08:42:13.307Z,65.87
2019-04-11T08:44:46.096Z,64.79
2019-04-11T08:47:20.296Z,65.38
2019-04-11T08:49:54.158Z,66.06
2019-04-11T08:52:52.062Z,65.93
2019-04-11T08:55:43.536Z,66.25
2019-04-11T08:58:16.485Z,67.11
2019-04-11T09:00:56.302Z,66.81
2019-04-11T09:03:59.294Z,65.81
2019-04-11T09:06:26.244Z,66.27
2019-04-11T09:09:15.317Z,65.88
2019-04-11T09:11:49.471Z,65.78
2019-04-11T09:14:38.153Z,66.49
2019-04-11T09:17:12.325Z,66.97
2019-04-11T09:20:14.224Z,65.93
2019-04-11T09:22:59.466Z,66.84
2019-04-11T09:26:08.130Z,66.72
2019-04-11T09:28:51.477Z,66.35
2019-04-11T09:31:41.865Z,66.50
2019-04-11T09:34:44.205Z,65.65
2019-04-11T09:37:23.226Z,66.00
2019-04-11T09:40:20.009Z,67.22
2019-04-11T09:43:09.866Z,67.22
2019-04-11T09:45:59.762Z,67.72
2019-04-11T09:48:42.271Z,66.58
2019-04-11T09:51:42.290Z,66.45
2019-04-11T09:54:32.440Z,67.46
2019-04-11T09:57:36.493Z,67.29
2019-04-11T10:00:28.743Z,66.94
2019-04-11T10:03:17.545Z,67.42
2019-04-11T10:05:54.572Z,66.24
2019-04-11T10:08:37.321Z,66.18
2019-04-11T10:11:26.201Z,65.98
2019-04-11T10:14:17.644Z,65.81
2019-04-11T10:17:06.784Z,65.73
2019-04-11T10:20:00.384Z,67.07
2019-04-11T10:22:49.006Z,65.92
2019-04-11T10:25:28.265Z,65.18
2019-04-11T10:28:24.972Z,66.54
2019-04-11T10:31:16.511Z,65.26
2019-04-11T10:34:19.617Z,65.84
2019-04-11T10:37:09.731Z,66.31
2019-04-11T10:40:00.368Z,65.97
2019-04-11T10:42:32.830Z,66.53
2019-04-11T10:45:29.274Z,67.13
2019-04-11T10:48:03.315Z,66.20
2019-04-11T10:51:12.849Z,67.49
2019-04-11T10:53:44.295Z,67.00
2019-04-11T10:56:39.366Z,67.02
2019-04-11T10:59:11.149Z,66.73
2019-04-11T11:02:00.303Z,67.21
2019-04-11T11:04:38.781Z,67.96
2019-04-11T11:07:13.188Z,67.97
2019-04-11T11:10:04.682Z,68.62
2019-04-11T11:13:04.284Z,67.94
2019-04-11T11:15:42.608Z,68.35
2019-04-11T11:18:54.132Z,68.64
2019-04-11T11:21:09.334Z,69.24
2019-04-11T11:24:17.737Z,69.63
2019-04-11T11:26:54.516Z,68.83
2019-04-11T11:29:47.600Z,67.92
2019-04-11T11:32:38.006Z,67.06
2019-04-11T11:35:34.283Z,66.78
2019-04-11T11:38:20.126Z,66.42
2019-04-11T11:41:16.388Z,66.76
2019-04-11T11:43:48.804Z,64.32
2019-04-11T11:46:45.213Z,64.00
2019-04-11T11:49:37.622Z,64.66
2019-04-11T11:52:13.559Z,63.39
2019-04-11T11:54:53.657Z,62.77
2019-04-11T11:57:39.272Z,62.96
2019-04-11T12:00:17.015Z,62.87
2019-04-11T12:03:03.654Z,62.05
2019-04-11T12:05:52.185Z,61.96
2019-04-11T12:08:44.319Z,62.51
2019-04-11T12:11:14.215Z,63.77
2019-04-11T12:14:07.634Z,63.68
2019-04-11T12:16:48.311Z,61.62
2019-04-11T12:19:26.867Z,62.95
2019-04-11T12:21:58.601Z,62.56
2019-04-11T12:25:00.670Z,62.58
2019-04-11T12:28:00.449Z,61.02
2019-04-11T12:30:50.450Z,60.98
2019-04-11T12:33:39.525Z,62.25
2019-04-11T12:36:22.996Z,63.95
2019-04-11T12:39:25.445Z,63.38
2019-04-11T12:42:18.529Z,62.72
2019-04-11T12:45:08.397Z,62.64
2019-04-11T12:47:48.942Z,61.45
2019-04-11T12:50:37.963Z,61.45
2019-04-11T12:53:14.230Z,61.71
2019-04-11T12:56:22.373Z,61.71
2019-04-11T12:59:05.539Z,61.04
2019-04-11T13:01:58.777Z,59.52
2019-04-11T13:04:35.127Z,60.65
2019-04-11T13:07:28.253Z,60.65
2019-04-11T13:10:05.815Z,60.62
2019-04-11T13:13:13.697Z,59.16
2019-04-11T13:15:48.125Z,57.91
2019-04-11T13:18:53.487Z,57.28
2019-04-11T13:21:27.601Z,56.35
2019-04-11T13:24:20.379Z,56.35
2019-04-11T13:27:19.216Z,57.10
2019-04-11T13:30:09.257Z,56.75
2019-04-11T13:32:48.489Z,57.50
2019-04-11T13:35:38.338Z,56.28
2019-04-11T13:38:17.301Z,56.10
2019-04-11T13:41:07.067Z,56.44
2019-04-11T13:44:09.895Z,56.44
2019-04-11T13:46:59.844Z,56.32
2019-04-11T13:49:48.517Z,55.17
2019-04-11T13:52:38.841Z,54.11
2019-04-11T13:55:15.921Z,54.38
2019-04-11T13:58:05.858Z,55.32
2019-04-11T14:00:41.869Z,54.77
2019-04-11T14:03:31.667Z,55.03
2019-04-11T14:06:07.619Z,55.03
2019-04-11T14:09:06.859Z,55.13
2019-04-11T14:11:42.047Z,54.71
2019-04-11T14:14:32.966Z,56.45
2019-04-11T14:17:23.900Z,55.13
2019-04-11T14:20:29.149Z,55.16
2019-04-11T14:23:15.173Z,54.88
2019-04-11T14:26:15.161Z,54.58
2019-04-11T14:29:04.856Z,53.34
2019-04-11T14:32:00.134Z,53.94
2019-04-11T14:34:48.917Z,53.26
2019-04-11T14:37:45.102Z,54.48
2019-04-11T14:40:47.348Z,53.90
2019-04-11T14:43:26.918Z,54.03
2019-04-11T14:46:19.935Z,54.06
2019-04-11T14:48:52.846Z,53.25
2019-04-11T14:51:40.053Z,53.15
2019-04-11T14:54:17.349Z,53.95
2019-04-11T14:56:53.415Z,54.32
2019-04-11T14:59:49.313Z,54.24
2019-04-11T15:02:30.345Z,54.24
2019-04-11T15:05:26.037Z,56.01
2019-04-11T15:07:57.783Z,56.01
2019-04-11T15:10:48.306Z,56.00
2019-04-11T15:13:24.398Z,57.01
2019-04-11T15:16:13.206Z,56.31
2019-04-11T15:18:49.743Z,56.50
2019-04-11T15:21:48.600Z,56.50
2019-04-11T15:24:20.578Z,55.80
2019-04-11T15:27:10.779Z,55.98
2019-04-11T15:29:45.489Z,55.98
2019-04-11T15:32:30.117Z,55.68
2019-04-11T15:35:13.019Z,55.68
2019-04-11T15:38:09.118Z,55.09
2019-04-11T15:40:46.575Z,54.65
2019-04-11T15:43:43.432Z,53.98
2019-04-11T15:46:43.126Z,53.84
2019-04-11T15:49:46.467Z,53.88
2019-04-11T15:52:20.171Z,53.97
2019-04-11T15:55:12.856Z,53.87
2019-04-11T15:57:47.739Z,53.63
2019-04-11T16:00:56.194Z,54.89
2019-04-11T16:03:27.374Z,53.56
2019-04-11T16:06:15.761Z,53.09
2019-04-11T16:08:52.295Z,52.82
2019-04-11T16:11:54.190Z,53.93
2019-04-11T16:14:30.308Z,53.51
2019-04-11T16:17:35.365Z,53.62
2019-04-11T16:20:20.432Z,53.57
2019-04-11T16:23:03.921Z,53.83
2019-04-11T16:25:34.939Z,53.36
2019-04-11T16:28:42.406Z,53.87
2019-04-11T16:31:14.183Z,53.57
2019-04-11T16:34:15.875Z,53.63
2019-04-11T16:37:04.392Z,53.47
2019-04-11T16:39:43.259Z,54.31
2019-04-11T16:42:15.569Z,53.30
2019-04-11T16:45:25.180Z,53.58
2019-04-11T16:48:04.400Z,54.13
2019-04-11T16:50:35.546Z,54.29
2019-04-11T16:53:10.506Z,54.29
2019-04-11T16:55:42.424Z,54.39
2019-04-11T16:58:15.219Z,54.41
2019-04-11T17:00:45.544Z,54.61
2019-04-11T17:03:17.369Z,54.81
2019-04-11T17:06:07.183Z,55.34
2019-04-11T17:08:56.406Z,55.66
2019-04-11T17:11:28.813Z,56.21
2019-04-11T17:13:59.656Z,56.21
2019-04-11T17:16:31.019Z,55.89
2019-04-11T17:19:04.952Z,56.10
2019-04-11T17:21:43.104Z,57.47
2019-04-11T17:24:07.380Z,57.47
2019-04-11T17:26:38.302Z,57.65
2019-04-11T17:29:09.481Z,56.79
2019-04-11T17:31:40.660Z,56.45
2019-04-11T17:34:12.146Z,56.73
2019-04-11T17:36:43.154Z,56.93
2019-04-11T17:39:14.502Z,58.43
2019-04-11T17:41:45.507Z,58.43
2019-04-11T17:44:16.350Z,58.52
2019-04-11T17:46:47.372Z,58.10
2019-04-11T17:49:18.633Z,58.32
2019-04-11T17:51:55.844Z,58.84
2019-04-11T17:54:24.677Z,58.84
2019-04-11T17:56:58.718Z,59.15
2019-04-11T17:59:29.155Z,60.13
2019-04-11T18:02:00.115Z,60.13
2019-04-11T18:04:32.260Z,59.87
2019-04-11T18:07:03.197Z,61.04
2019-04-11T18:09:34.045Z,61.04
2019-04-11T18:12:05.612Z,61.14
2019-04-11T18:14:36.562Z,61.65
2019-04-11T18:17:07.592Z,61.54
2019-04-11T18:19:38.706Z,61.67
2019-04-11T18:22:13.353Z,61.95
2019-04-11T18:24:43.186Z,62.11
2019-04-11T18:27:14.673Z,61.03
2019-04-11T18:29:45.686Z,60.99
2019-04-11T18:32:16.864Z,60.40
2019-04-11T18:34:47.838Z,60.30
2019-04-11T18:37:18.714Z,60.82
2019-04-11T18:39:49.726Z,60.46
2019-04-11T18:42:20.657Z,60.35
2019-04-11T18:44:52.063Z,60.61
2019-04-11T18:47:23.228Z,60.78
2019-04-11T18:49:54.132Z,61.57
2019-04-11T18:52:26.537Z,61.08
2019-04-11T18:54:58.015Z,61.57
2019-04-11T18:57:29.348Z,62.28
2019-04-11T19:00:02.348Z,62.90
2019-04-11T19:02:33.940Z,62.16
2019-04-11T19:05:06.070Z,61.73
2019-04-11T19:07:38.468Z,61.98
2019-04-11T19:10:14.575Z,62.22
2019-04-11T19:12:45.931Z,62.60
2019-04-11T19:15:17.099Z,63.29
2019-04-11T19:17:48.403Z,63.17
2019-04-11T19:20:20.101Z,63.05
2019-04-11T19:22:51.097Z,63.67
2019-04-11T19:25:22.233Z,64.04
2019-04-11T19:27:54.370Z,64.13
2019-04-11T19:30:27.057Z,63.45
2019-04-11T19:32:59.593Z,63.95
2019-04-11T19:35:30.998Z,64.48
2019-04-11T19:38:02.582Z,64.08
2019-04-11T19:40:34.206Z,64.15
2019-04-11T19:43:05.582Z,63.57
2019-04-11T19:45:36.885Z,63.05
2019-04-11T19:48:08.586Z,62.68
2019-04-11T19:50:40.187Z,62.45
2019-04-11T19:53:11.952Z,62.34
2019-04-11T19:56:05.405Z,62.51
2019-04-11T19:58:37.370Z,62.31
2019-04-11T20:01:09.936Z,62.50
2019-04-11T20:03:41.305Z,63.86
2019-04-11T20:06:13.409Z,63.88
2019-04-11T20:08:44.779Z,64.65
2019-04-11T20:11:15.966Z,65.93
2019-04-11T20:13:47.400Z,67.05
2019-04-11T20:16:18.351Z,67.23
2019-04-11T20:18:51.357Z,67.32
2019-04-11T20:21:22.667Z,66.82
2019-04-11T20:23:53.812Z,67.14
2019-04-11T20:26:33.838Z,67.79
2019-04-11T20:29:05.047Z,68.44
2019-04-11T20:31:36.196Z,70.21
2019-04-11T20:34:08.200Z,70.66
2019-04-11T20:36:41.386Z,70.16
2019-04-11T20:39:14.981Z,70.13
2019-04-11T20:41:45.202Z,71.01
2019-04-11T20:44:16.572Z,70.89
2019-04-11T20:46:48.006Z,70.84
2019-04-11T20:49:18.981Z,71.11
2019-04-11T20:51:50.106Z,71.25
2019-04-11T20:54:21.103Z,71.02
2019-04-11T20:56:52.475Z,71.03
2019-04-11T20:59:33.954Z,70.35
2019-04-11T21:01:57.001Z,71.37
2019-04-11T21:04:28.061Z,70.93
2019-04-11T21:07:01.763Z,70.02
2019-04-11T21:09:33.242Z,70.00
2019-04-11T21:12:07.485Z,69.76
2019-04-11T21:14:37.923Z,71.05
2019-04-11T21:17:09.009Z,71.64
2019-04-11T21:19:40.553Z,71.29
2019-04-11T21:22:11.726Z,71.97
2019-04-11T21:24:44.067Z,72.43
2019-04-11T21:27:15.131Z,72.98
2019-04-11T21:29:46.075Z,72.76
2019-04-11T21:32:17.286Z,73.43
2019-04-11T21:34:48.276Z,73.37
2019-04-11T21:37:19.720Z,73.28
2019-04-11T21:39:50.822Z,73.58
2019-04-11T21:42:22.467Z,73.63
2019-04-11T21:44:53.640Z,73.75
2019-04-11T21:47:25.056Z,73.99
2019-04-11T21:49:56.053Z,73.55
2019-04-11T21:52:27.169Z,73.64
2019-04-11T21:54:58.534Z,73.55
2019-04-11T21:57:29.743Z,73.85
2019-04-11T22:00:01.601Z,73.79
2019-04-11T22:02:34.318Z,74.12
2019-04-11T22:05:06.044Z,74.28
2019-04-11T22:07:37.309Z,73.90
2019-04-11T22:10:09.070Z,74.03
2019-04-11T22:12:40.572Z,74.01
2019-04-11T22:15:12.572Z,74.16
2019-04-11T22:17:45.500Z,74.39
2019-04-11T22:20:17.480Z,74.45
2019-04-11T22:22:48.379Z,74.95
2019-04-11T22:25:19.720Z,74.69
2019-04-11T22:27:51.082Z,74.81
2019-04-11T22:30:25.332Z,75.35
2019-04-11T22:33:07.403Z,75.25
2019-04-11T22:35:38.659Z,75.58
2019-04-11T22:38:10.941Z,75.29
2019-04-11T22:40:42.163Z,75.39
2019-04-11T22:43:24.201Z,75.59
2019-04-11T22:45:47.033Z,75.53
2019-04-11T22:48:18.137Z,75.47
2019-04-11T22:50:49.350Z,75.49
2019-04-11T22:53:20.690Z,75.53
2019-04-11T22:55:51.894Z,75.43
2019-04-11T22:58:23.276Z,75.37
2019-04-11T23:00:54.605Z,75.37
2019-04-11T23:03:32.648Z,75.13
2019-04-11T23:06:03.950Z,74.63
2019-04-11T23:08:35.580Z,74.65
2019-04-11T23:11:06.798Z,74.58
2019-04-11T23:13:38.143Z,74.57
2019-04-11T23:16:09.711Z,74.48
2019-04-11T23:18:41.907Z,74.46
2019-04-11T23:21:15.048Z,74.98
2019-04-11T23:23:46.499Z,74.68
2019-04-11T23:26:17.962Z,75.63
2019-04-11T23:28:49.079Z,75.48
2019-04-11T23:31:21.091Z,75.58
2019-04-11T23:33:52.674Z,76.04
2019-04-11T23:36:24.081Z,75.92
2019-04-11T23:38:55.752Z,76.34
2019-04-11T23:41:27.304Z,77.13
2019-04-11T23:43:58.871Z,77.63
2019-04-11T23:46:30.399Z,77.49
2019-04-11T23:49:02.057Z,77.78
2019-04-11T23:51:33.283Z,78.05
2019-04-11T23:54:04.996Z,78.04
2019-04-11T23:56:36.237Z,78.29
2019-04-11T23:59:07.545Z,78.54
